createdAt,value
2022-11-08T00:12:49.000Z,12.3
2022-11-08T00:27:28.000Z,12.8
2022-11-08T00:42:04.000Z,14.1
2022-11-08T00:56:37.000Z,13.5
2022-11-08T01:11:15.000Z,16
2022-11-08T01:25:52.000Z,16.1
2022-11-08T01:40:26.000Z,18.7
2022-11-08T01:55:00.000Z,14.3
2022-11-08T02:09:38.000Z,31.5
2022-11-08T02:24:17.000Z,34.8
2022-11-08T02:38:54.000Z,34.6
2022-11-08T02:53:31.000Z,29.1
2022-11-08T03:08:07.000Z,26
2022-11-08T03:22:45.000Z,17.4
2022-11-08T03:37:23.000Z,24.8
2022-11-08T03:51:59.000Z,21.6
2022-11-08T04:06:35.000Z,23.1
2022-11-08T04:21:15.000Z,13.5
2022-11-08T04:35:51.000Z,7.3
2022-11-08T04:50:30.000Z,11.1
2022-11-08T05:05:02.000Z,6.5
2022-11-08T05:19:41.000Z,5
2022-11-08T05:34:20.000Z,5.1
2022-11-08T05:48:59.000Z,6.7
2022-11-08T06:03:42.000Z,4.2
2022-11-08T06:18:14.000Z,6.3
2022-11-08T06:32:53.000Z,3.6
2022-11-08T06:47:31.000Z,3.6
2022-11-08T07:02:08.000Z,6.7
2022-11-08T07:16:47.000Z,4
2022-11-08T07:31:26.000Z,2.8
2022-11-08T07:46:06.000Z,6.6
2022-11-08T08:00:45.000Z,3.1
2022-11-08T08:15:21.000Z,6.2
2022-11-08T08:30:02.000Z,4.8
2022-11-08T08:44:44.000Z,1.9
2022-11-08T09:14:10.000Z,2.9
2022-11-08T09:28:52.000Z,2.3
2022-11-08T09:43:33.000Z,3.1
2022-11-08T09:58:11.000Z,2
2022-11-08T10:12:42.000Z,2.5
2022-11-08T10:27:17.000Z,2.7
2022-11-08T10:41:53.000Z,3.1
2022-11-08T10:56:23.000Z,4.7
2022-11-08T11:11:01.000Z,3.1
2022-11-08T11:25:40.000Z,2.8
2022-11-08T11:40:23.000Z,3.1
2022-11-08T11:54:59.000Z,4.6
2022-11-08T12:09:39.000Z,1.7
2022-11-08T12:24:19.000Z,1.8
2022-11-08T12:38:56.000Z,2.8
2022-11-08T12:53:33.000Z,4
2022-11-08T13:08:11.000Z,5.7
2022-11-08T13:22:47.000Z,3.6
2022-11-08T13:37:25.000Z,3.4
2022-11-08T13:52:02.000Z,2
2022-11-08T14:06:41.000Z,4.2
2022-11-08T14:21:19.000Z,5.7
2022-11-08T14:36:02.000Z,4.4
2022-11-08T14:50:37.000Z,2.5
2022-11-08T15:05:15.000Z,1.8
2022-11-08T15:19:51.000Z,4.1
2022-11-08T15:34:26.000Z,4.3
2022-11-08T15:49:00.000Z,4.6
2022-11-08T16:03:36.000Z,2.7
2022-11-08T16:18:14.000Z,3.1
2022-11-08T16:32:52.000Z,3
2022-11-08T16:47:31.000Z,2.9
2022-11-08T17:02:11.000Z,7
2022-11-08T17:16:46.000Z,2.2
2022-11-08T17:31:18.000Z,2.8
2022-11-08T17:45:57.000Z,2.1
2022-11-08T18:00:32.000Z,3.9
2022-11-08T18:15:11.000Z,2.4
2022-11-08T18:29:50.000Z,6.5
2022-11-08T18:44:30.000Z,2.3
2022-11-08T18:59:09.000Z,2.4
2022-11-08T19:13:49.000Z,5.2
2022-11-08T19:28:28.000Z,3.6
2022-11-08T19:43:05.000Z,4.1
2022-11-08T19:57:37.000Z,4
2022-11-08T20:12:16.000Z,4.5
2022-11-08T20:26:47.000Z,4.1
2022-11-08T20:41:27.000Z,3.1
2022-11-08T20:56:06.000Z,4.2
2022-11-08T21:10:43.000Z,5.5
2022-11-08T21:25:20.000Z,5.9
2022-11-08T21:39:58.000Z,5.4
2022-11-08T21:54:37.000Z,4
2022-11-08T22:09:16.000Z,5.7
2022-11-08T22:23:50.000Z,3
2022-11-08T22:38:29.000Z,3.4
2022-11-08T22:53:09.000Z,4.3
2022-11-08T23:07:46.000Z,2.5
2022-11-08T23:22:27.000Z,4.1
2022-11-08T23:37:03.000Z,3.5
2022-11-08T23:51:40.000Z,3.1
